sensor_id;sensor_type;location;lat;lon;timestamp;pressure;altitude;pressure_sealevel;temperature;humidity
46836;BME280;32573;51.290;6.926;2023-09-30T00:01:03;101091.09;;;14.20;100.00
46836;BME280;32573;51.290;6.926;2023-09-30T00:03:37;101097.16;;;14.17;100.00
46836;BME280;32573;51.290;6.926;2023-09-30T00:06:06;101103.34;;;14.18;100.00
46836;BME280;32573;51.290;6.926;2023-09-30T00:08:36;101101.53;;;14.17;100.00
46836;BME280;32573;51.290;6.926;2023-09-30T00:11:06;101110.31;;;14.16;100.00
46836;BME280;32573;51.290;6.926;2023-09-30T00:13:35;101114.63;;;14.14;100.00
46836;BME280;32573;51.290;6.926;2023-09-30T00:16:04;101115.44;;;14.11;100.00
46836;BME280;32573;51.290;6.926;2023-09-30T00:18:33;101117.13;;;14.09;100.00
46836;BME280;32573;51.290;6.926;2023-09-30T00:21:02;101118.88;;;14.09;100.00
46836;BME280;32573;51.290;6.926;2023-09-30T00:23:33;101103.06;;;14.09;100.00
46836;BME280;32573;51.290;6.926;2023-09-30T00:26:04;101106.53;;;14.08;100.00
46836;BME280;32573;51.290;6.926;2023-09-30T00:28:33;101113.59;;;14.09;100.00
46836;BME280;32573;51.290;6.926;2023-09-30T00:31:06;101104.84;;;14.10;100.00
46836;BME280;32573;51.290;6.926;2023-09-30T00:33:37;101110.13;;;14.10;100.00
46836;BME280;32573;51.290;6.926;2023-09-30T00:36:07;101112.75;;;14.10;100.00
46836;BME280;32573;51.290;6.926;2023-09-30T00:38:36;101110.13;;;14.10;100.00
46836;BME280;32573;51.290;6.926;2023-09-30T00:41:07;101105.72;;;14.09;100.00
46836;BME280;32573;51.290;6.926;2023-09-30T00:43:39;101108.34;;;14.09;100.00
46836;BME280;32573;51.290;6.926;2023-09-30T00:46:17;101108.38;;;14.10;100.00
46836;BME280;32573;51.290;6.926;2023-09-30T00:48:46;101111.00;;;14.10;100.00
46836;BME280;32573;51.290;6.926;2023-09-30T00:51:16;101112.81;;;14.11;100.00
46836;BME280;32573;51.290;6.926;2023-09-30T00:53:45;101114.56;;;14.12;100.00
46836;BME280;32573;51.290;6.926;2023-09-30T00:56:15;101116.31;;;14.12;100.00
46836;BME280;32573;51.290;6.926;2023-09-30T00:58:45;101111.91;;;14.11;100.00
46836;BME280;32573;51.290;6.926;2023-09-30T01:01:19;101111.91;;;14.11;100.00
46836;BME280;32573;51.290;6.926;2023-09-30T01:03:49;101118.97;;;14.12;100.00
46836;BME280;32573;51.290;6.926;2023-09-30T01:06:18;101127.72;;;14.11;100.00
46836;BME280;32573;51.290;6.926;2023-09-30T01:08:46;101140.81;;;14.09;100.00
46836;BME280;32573;51.290;6.926;2023-09-30T01:11:17;101146.09;;;14.09;100.00
46836;BME280;32573;51.290;6.926;2023-09-30T01:13:46;101128.53;;;14.08;100.00
46836;BME280;32573;51.290;6.926;2023-09-30T01:16:15;101108.34;;;14.09;100.00
46836;BME280;32573;51.290;6.926;2023-09-30T01:18:44;101089.91;;;14.09;100.00
46836;BME280;32573;51.290;6.926;2023-09-30T01:21:12;101087.28;;;14.09;100.00
46836;BME280;32573;51.290;6.926;2023-09-30T01:23:43;101096.00;;;14.08;100.00
46836;BME280;32573;51.290;6.926;2023-09-30T01:26:14;101100.38;;;14.06;100.00
46836;BME280;32573;51.290;6.926;2023-09-30T01:28:42;101108.25;;;14.06;100.00
46836;BME280;32573;51.290;6.926;2023-09-30T01:31:11;101122.25;;;14.05;100.00
46836;BME280;32573;51.290;6.926;2023-09-30T01:33:40;101130.16;;;14.05;100.00
46836;BME280;32573;51.290;6.926;2023-09-30T01:36:10;101117.00;;;14.05;100.00
46836;BME280;32573;51.290;6.926;2023-09-30T01:38:39;101129.31;;;14.06;100.00
46836;BME280;32573;51.290;6.926;2023-09-30T01:41:09;101122.31;;;14.06;100.00
46836;BME280;32573;51.290;6.926;2023-09-30T01:43:38;101116.16;;;14.06;100.00
46836;BME280;32573;51.290;6.926;2023-09-30T01:46:07;101117.88;;;14.05;100.00
46836;BME280;32573;51.290;6.926;2023-09-30T01:48:36;101117.88;;;14.05;100.00
46836;BME280;32573;51.290;6.926;2023-09-30T01:51:05;101118.78;;;14.06;100.00
46836;BME280;32573;51.290;6.926;2023-09-30T01:53:34;101117.00;;;14.05;100.00
46836;BME280;32573;51.290;6.926;2023-09-30T01:56:03;101129.28;;;14.04;100.00
46836;BME280;32573;51.290;6.926;2023-09-30T01:58:34;101135.41;;;14.03;100.00
46836;BME280;32573;51.290;6.926;2023-09-30T02:01:03;101144.13;;;14.02;100.00
46836;BME280;32573;51.290;6.926;2023-09-30T02:03:32;101151.06;;;14.00;100.00
46836;BME280;32573;51.290;6.926;2023-09-30T02:06:01;101156.31;;;13.98;100.00
46836;BME280;32573;51.290;6.926;2023-09-30T02:08:31;101155.38;;;13.96;100.00
46836;BME280;32573;51.290;6.926;2023-09-30T02:11:00;101152.66;;;13.93;100.00
46836;BME280;32573;51.290;6.926;2023-09-30T02:13:29;101144.63;;;13.90;100.00
46836;BME280;32573;51.290;6.926;2023-09-30T02:15:59;101148.06;;;13.88;100.00
46836;BME280;32573;51.290;6.926;2023-09-30T02:18:29;101146.28;;;13.87;100.00
46836;BME280;32573;51.290;6.926;2023-09-30T02:20:59;101135.72;;;13.85;100.00
46836;BME280;32573;51.290;6.926;2023-09-30T02:23:28;101138.31;;;13.84;100.00
46836;BME280;32573;51.290;6.926;2023-09-30T02:25:57;101143.53;;;13.82;100.00
46836;BME280;32573;51.290;6.926;2023-09-30T02:28:26;101144.38;;;13.81;100.00
46836;BME280;32573;51.290;6.926;2023-09-30T02:30:54;101145.19;;;13.78;100.00
46836;BME280;32573;51.290;6.926;2023-09-30T02:33:24;101143.34;;;13.76;100.00
46836;BME280;32573;51.290;6.926;2023-09-30T02:35:53;101132.69;;;13.71;100.00
46836;BME280;32573;51.290;6.926;2023-09-30T02:38:22;101132.59;;;13.68;100.00
46836;BME280;32573;51.290;6.926;2023-09-30T02:40:54;101126.41;;;13.68;100.00
46836;BME280;32573;51.290;6.926;2023-09-30T02:43:22;101128.94;;;13.65;100.00
46836;BME280;32573;51.290;6.926;2023-09-30T02:45:51;101128.91;;;13.63;100.00
46836;BME280;32573;51.290;6.926;2023-09-30T02:48:20;101124.47;;;13.61;100.00
46836;BME280;32573;51.290;6.926;2023-09-30T02:50:51;101129.59;;;13.57;100.00
46836;BME280;32573;51.290;6.926;2023-09-30T02:53:20;101142.72;;;13.56;100.00
46836;BME280;32573;51.290;6.926;2023-09-30T02:55:49;101148.00;;;13.56;100.00
46836;BME280;32573;51.290;6.926;2023-09-30T02:58:24;101154.03;;;13.53;100.00
46836;BME280;32573;51.290;6.926;2023-09-30T03:00:53;101154.84;;;13.51;100.00
46836;BME280;32573;51.290;6.926;2023-09-30T03:03:22;101149.50;;;13.49;100.00
46836;BME280;32573;51.290;6.926;2023-09-30T03:05:54;101157.31;;;13.46;100.00
46836;BME280;32573;51.290;6.926;2023-09-30T03:08:24;101158.09;;;13.44;100.00
46836;BME280;32573;51.290;6.926;2023-09-30T03:10:52;101159.72;;;13.40;100.00
46836;BME280;32573;51.290;6.926;2023-09-30T03:13:22;101160.53;;;13.37;100.00
46836;BME280;32573;51.290;6.926;2023-09-30T03:15:50;101159.59;;;13.35;100.00
46836;BME280;32573;51.290;6.926;2023-09-30T03:18:19;101156.91;;;13.34;100.00
46836;BME280;32573;51.290;6.926;2023-09-30T03:20:59;101160.34;;;13.31;100.00
46836;BME280;32573;51.290;6.926;2023-09-30T03:23:28;101151.56;;;13.31;100.00
46836;BME280;32573;51.290;6.926;2023-09-30T03:25:58;101159.31;;;13.28;100.00
46836;BME280;32573;51.290;6.926;2023-09-30T03:28:27;101151.31;;;13.25;100.00
46836;BME280;32573;51.290;6.926;2023-09-30T03:30:56;101145.97;;;13.22;100.00
46836;BME280;32573;51.290;6.926;2023-09-30T03:33:26;101152.00;;;13.19;100.00
46836;BME280;32573;51.290;6.926;2023-09-30T03:35:56;101146.69;;;13.17;100.00
46836;BME280;32573;51.290;6.926;2023-09-30T03:38:25;101138.78;;;13.16;100.00
46836;BME280;32573;51.290;6.926;2023-09-30T03:40:54;101138.72;;;13.14;100.00
46836;BME280;32573;51.290;6.926;2023-09-30T03:43:25;101153.59;;;13.14;100.00
46836;BME280;32573;51.290;6.926;2023-09-30T03:45:54;101150.91;;;13.12;100.00
46836;BME280;32573;51.290;6.926;2023-09-30T03:48:24;101151.69;;;13.10;100.00
46836;BME280;32573;51.290;6.926;2023-09-30T03:50:53;101142.84;;;13.08;100.00
46836;BME280;32573;51.290;6.926;2023-09-30T03:53:24;101135.88;;;13.08;100.00
46836;BME280;32573;51.290;6.926;2023-09-30T03:55:54;101129.72;;;13.08;100.00
46836;BME280;32573;51.290;6.926;2023-09-30T03:58:22;101129.69;;;13.06;100.00
46836;BME280;32573;51.290;6.926;2023-09-30T04:00:51;101126.09;;;13.04;100.00
46836;BME280;32573;51.290;6.926;2023-09-30T04:03:20;101131.34;;;13.04;100.00
46836;BME280;32573;51.290;6.926;2023-09-30T04:05:49;101136.63;;;13.04;100.00
46836;BME280;32573;51.290;6.926;2023-09-30T04:08:18;101137.50;;;13.05;100.00
46836;BME280;32573;51.290;6.926;2023-09-30T04:10:48;101143.66;;;13.05;100.00
46836;BME280;32573;51.290;6.926;2023-09-30T04:13:17;101138.38;;;13.05;100.00
46836;BME280;32573;51.290;6.926;2023-09-30T04:15:48;101142.75;;;13.05;100.00
46836;BME280;32573;51.290;6.926;2023-09-30T04:18:17;101139.25;;;13.04;100.00
46836;BME280;32573;51.290;6.926;2023-09-30T04:20:47;101132.25;;;13.05;100.00
46836;BME280;32573;51.290;6.926;2023-09-30T04:23:16;101134.94;;;13.06;100.00
46836;BME280;32573;51.290;6.926;2023-09-30T04:25:49;101144.59;;;13.07;100.00
46836;BME280;32573;51.290;6.926;2023-09-30T04:28:18;101136.78;;;13.09;100.00
46836;BME280;32573;51.290;6.926;2023-09-30T04:30:48;101128.88;;;13.09;100.00
46836;BME280;32573;51.290;6.926;2023-09-30T04:33:17;101129.78;;;13.09;100.00
46836;BME280;32573;51.290;6.926;2023-09-30T04:35:47;101134.25;;;13.12;100.00
46836;BME280;32573;51.290;6.926;2023-09-30T04:38:16;101141.31;;;13.13;100.00
46836;BME280;32573;51.290;6.926;2023-09-30T04:40:45;101144.81;;;13.13;100.00
46836;BME280;32573;51.290;6.926;2023-09-30T04:43:17;101151.03;;;13.15;100.00
46836;BME280;32573;51.290;6.926;2023-09-30T04:45:46;101146.66;;;13.16;100.00
46836;BME280;32573;51.290;6.926;2023-09-30T04:48:17;101151.94;;;13.17;100.00
46836;BME280;32573;51.290;6.926;2023-09-30T04:50:46;101157.19;;;13.17;100.00
46836;BME280;32573;51.290;6.926;2023-09-30T04:53:14;101160.75;;;13.18;100.00
46836;BME280;32573;51.290;6.926;2023-09-30T04:55:44;101161.56;;;13.17;100.00
46836;BME280;32573;51.290;6.926;2023-09-30T04:58:13;101163.31;;;13.16;100.00
46836;BME280;32573;51.290;6.926;2023-09-30T05:00:43;101168.50;;;13.15;100.00
46836;BME280;32573;51.290;6.926;2023-09-30T05:03:12;101163.22;;;13.13;100.00
46836;BME280;32573;51.290;6.926;2023-09-30T05:05:41;101169.28;;;13.11;100.00
46836;BME280;32573;51.290;6.926;2023-09-30T05:08:10;101177.09;;;13.09;100.00
46836;BME280;32573;51.290;6.926;2023-09-30T05:10:41;101180.44;;;13.05;100.00
46836;BME280;32573;51.290;6.926;2023-09-30T05:13:10;101186.50;;;13.03;100.00
46836;BME280;32573;51.290;6.926;2023-09-30T05:15:39;101189.09;;;13.01;100.00
46836;BME280;32573;51.290;6.926;2023-09-30T05:18:10;101193.44;;;13.01;100.00
46836;BME280;32573;51.290;6.926;2023-09-30T05:20:39;101189.88;;;12.99;100.00
46836;BME280;32573;51.290;6.926;2023-09-30T05:23:08;101187.16;;;12.95;100.00
46836;BME280;32573;51.290;6.926;2023-09-30T05:25:39;101184.38;;;12.92;100.00
46836;BME280;32573;51.290;6.926;2023-09-30T05:28:09;101189.59;;;12.91;100.00
46836;BME280;32573;51.290;6.926;2023-09-30T05:30:39;101192.09;;;12.88;100.00
46836;BME280;32573;51.290;6.926;2023-09-30T05:33:08;101193.81;;;12.86;100.00
46836;BME280;32573;51.290;6.926;2023-09-30T05:35:42;101198.03;;;12.82;100.00
46836;BME280;32573;51.290;6.926;2023-09-30T05:38:11;101200.63;;;12.81;100.00
46836;BME280;32573;51.290;6.926;2023-09-30T05:40:40;101209.34;;;12.80;100.00
46836;BME280;32573;51.290;6.926;2023-09-30T05:43:09;101191.81;;;12.79;100.00
46836;BME280;32573;51.290;6.926;2023-09-30T05:45:41;101205.75;;;12.78;100.00
46836;BME280;32573;51.290;6.926;2023-09-30T05:48:17;101200.41;;;12.74;100.00
46836;BME280;32573;51.290;6.926;2023-09-30T05:50:47;101199.59;;;12.76;100.00
46836;BME280;32573;51.290;6.926;2023-09-30T05:53:16;101200.41;;;12.74;100.00
46836;BME280;32573;51.290;6.926;2023-09-30T05:55:44;101202.22;;;12.76;100.00
46836;BME280;32573;51.290;6.926;2023-09-30T05:58:14;101202.22;;;12.76;100.00
46836;BME280;32573;51.290;6.926;2023-09-30T06:00:43;101194.31;;;12.76;100.00
46836;BME280;32573;51.290;6.926;2023-09-30T06:03:12;101195.22;;;12.76;100.00
46836;BME280;32573;51.290;6.926;2023-09-30T06:05:41;101195.25;;;12.78;100.00
46836;BME280;32573;51.290;6.926;2023-09-30T06:08:11;101198.81;;;12.80;100.00
46836;BME280;32573;51.290;6.926;2023-09-30T06:10:42;101186.53;;;12.79;100.00
46836;BME280;32573;51.290;6.926;2023-09-30T06:13:11;101190.13;;;12.81;100.00
46836;BME280;32573;51.290;6.926;2023-09-30T06:15:41;101197.09;;;12.80;100.00
46836;BME280;32573;51.290;6.926;2023-09-30T06:18:11;101203.31;;;12.82;100.00
46836;BME280;32573;51.290;6.926;2023-09-30T06:20:41;101216.50;;;12.84;100.00
46836;BME280;32573;51.290;6.926;2023-09-30T06:23:11;101206.94;;;12.86;100.00
46836;BME280;32573;51.290;6.926;2023-09-30T06:25:40;101211.34;;;12.87;100.00
46836;BME280;32573;51.290;6.926;2023-09-30T06:28:09;101212.25;;;12.87;100.00
46836;BME280;32573;51.290;6.926;2023-09-30T06:30:39;101209.69;;;12.89;100.00
46836;BME280;32573;51.290;6.926;2023-09-30T06:33:10;101200.94;;;12.90;100.00
46836;BME280;32573;51.290;6.926;2023-09-30T06:35:43;101207.16;;;12.92;100.00
46836;BME280;32573;51.290;6.926;2023-09-30T06:38:19;101208.09;;;12.94;100.00
46836;BME280;32573;51.290;6.926;2023-09-30T06:40:48;101205.53;;;12.95;100.00
46836;BME280;32573;51.290;6.926;2023-09-30T06:43:17;101215.28;;;12.98;100.00
46836;BME280;32573;51.290;6.926;2023-09-30T06:45:46;101213.53;;;12.99;100.00
46836;BME280;32573;51.290;6.926;2023-09-30T06:48:15;101211.00;;;13.02;100.00
46836;BME280;32573;51.290;6.926;2023-09-30T06:50:45;101216.34;;;13.05;100.00
46836;BME280;32573;51.290;6.926;2023-09-30T06:53:16;101221.72;;;13.08;100.00
46836;BME280;32573;51.290;6.926;2023-09-30T06:55:46;101230.53;;;13.10;100.00
46836;BME280;32573;51.290;6.926;2023-09-30T06:58:15;101236.88;;;13.15;100.00
46836;BME280;32573;51.290;6.926;2023-09-30T07:00:50;101214.22;;;13.19;100.00
46836;BME280;32573;51.290;6.926;2023-09-30T07:03:19;101216.09;;;13.23;100.00
46836;BME280;32573;51.290;6.926;2023-09-30T07:05:52;101216.34;;;13.29;100.00
46836;BME280;32573;51.290;6.926;2023-09-30T07:08:21;101224.41;;;13.33;100.00
46836;BME280;32573;51.290;6.926;2023-09-30T07:10:52;101220.19;;;13.38;100.00
46836;BME280;32573;51.290;6.926;2023-09-30T07:13:21;101227.38;;;13.44;100.00
46836;BME280;32573;51.290;6.926;2023-09-30T07:15:49;101227.56;;;13.50;100.00
46836;BME280;32573;51.290;6.926;2023-09-30T07:18:18;101226.00;;;13.55;100.00
46836;BME280;32573;51.290;6.926;2023-09-30T07:20:47;101234.09;;;13.62;100.00
46836;BME280;32573;51.290;6.926;2023-09-30T07:23:16;101227.25;;;13.67;100.00
46836;BME280;32573;51.290;6.926;2023-09-30T07:25:47;101233.53;;;13.72;100.00
46836;BME280;32573;51.290;6.926;2023-09-30T07:28:17;101243.38;;;13.77;100.00
46836;BME280;32573;51.290;6.926;2023-09-30T07:30:46;101245.34;;;13.83;100.00
46836;BME280;32573;51.290;6.926;2023-09-30T07:33:15;101256.91;;;13.88;100.00
46836;BME280;32573;51.290;6.926;2023-09-30T07:35:43;101266.72;;;13.94;100.00
46836;BME280;32573;51.290;6.926;2023-09-30T07:38:12;101276.53;;;13.99;100.00
46836;BME280;32573;51.290;6.926;2023-09-30T07:40:41;101274.94;;;14.05;100.00
46836;BME280;32573;51.290;6.926;2023-09-30T07:43:10;101287.41;;;14.10;100.00
46836;BME280;32573;51.290;6.926;2023-09-30T07:45:41;101291.06;;;14.14;100.00
46836;BME280;32573;51.290;6.926;2023-09-30T07:48:11;101285.97;;;14.20;100.00
46836;BME280;32573;51.290;6.926;2023-09-30T07:50:41;101287.00;;;14.25;100.00
46836;BME280;32573;51.290;6.926;2023-09-30T07:53:10;101285.41;;;14.30;100.00
46836;BME280;32573;51.290;6.926;2023-09-30T07:55:40;101292.56;;;14.34;100.00
46836;BME280;32573;51.290;6.926;2023-09-30T07:58:09;101293.59;;;14.39;100.00
46836;BME280;32573;51.290;6.926;2023-09-30T08:00:37;101290.22;;;14.43;100.00
46836;BME280;32573;51.290;6.926;2023-09-30T08:03:08;101289.44;;;14.48;100.00
46836;BME280;32573;51.290;6.926;2023-09-30T08:05:36;101287.88;;;14.53;100.00
46836;BME280;32573;51.290;6.926;2023-09-30T08:08:05;101296.84;;;14.58;100.00
46836;BME280;32573;51.290;6.926;2023-09-30T08:10:34;101300.50;;;14.63;100.00
46836;BME280;32573;51.290;6.926;2023-09-30T08:13:04;101293.63;;;14.68;100.00
46836;BME280;32573;51.290;6.926;2023-09-30T08:15:32;101296.44;;;14.74;100.00
46836;BME280;32573;51.290;6.926;2023-09-30T08:18:03;101304.47;;;14.79;100.00
46836;BME280;32573;51.290;6.926;2023-09-30T08:20:35;101306.38;;;14.84;100.00
46836;BME280;32573;51.290;6.926;2023-09-30T08:23:04;101312.69;;;14.89;100.00
46836;BME280;32573;51.290;6.926;2023-09-30T08:25:32;101311.06;;;14.95;100.00
46836;BME280;32573;51.290;6.926;2023-09-30T08:28:01;101313.84;;;14.99;100.00
46836;BME280;32573;51.290;6.926;2023-09-30T08:30:30;101321.00;;;15.03;100.00
46836;BME280;32573;51.290;6.926;2023-09-30T08:32:59;101322.84;;;15.07;100.00
46836;BME280;32573;51.290;6.926;2023-09-30T08:35:27;101325.63;;;15.12;100.00
46836;BME280;32573;51.290;6.926;2023-09-30T08:37:57;101317.84;;;15.15;100.00
46836;BME280;32573;51.290;6.926;2023-09-30T08:40:26;101322.31;;;15.19;100.00
46836;BME280;32573;51.290;6.926;2023-09-30T08:42:55;101325.91;;;15.21;100.00
46836;BME280;32573;51.290;6.926;2023-09-30T08:45:24;101323.34;;;15.24;100.00
46836;BME280;32573;51.290;6.926;2023-09-30T08:47:57;101321.69;;;15.28;100.00
46836;BME280;32573;51.290;6.926;2023-09-30T08:50:28;101322.66;;;15.31;100.00
46836;BME280;32573;51.290;6.926;2023-09-30T08:52:58;101321.03;;;15.37;100.00
46836;BME280;32573;51.290;6.926;2023-09-30T08:55:29;101312.38;;;15.41;100.00
46836;BME280;32573;51.290;6.926;2023-09-30T08:57:57;101304.56;;;15.45;100.00
46836;BME280;32573;51.290;6.926;2023-09-30T09:00:28;101295.03;;;15.50;100.00
46836;BME280;32573;51.290;6.926;2023-09-30T09:02:57;101300.44;;;15.55;100.00
46836;BME280;32573;51.290;6.926;2023-09-30T09:05:27;101290.84;;;15.59;100.00
46836;BME280;32573;51.290;6.926;2023-09-30T09:07:55;101275.97;;;15.62;100.00
46836;BME280;32573;51.290;6.926;2023-09-30T09:10:26;101271.66;;;15.66;100.00
46836;BME280;32573;51.290;6.926;2023-09-30T09:12:55;101275.25;;;15.68;100.00
46836;BME280;32573;51.290;6.926;2023-09-30T09:15:26;101281.50;;;15.71;100.00
46836;BME280;32573;51.290;6.926;2023-09-30T09:17:56;101275.47;;;15.76;100.00
46836;BME280;32573;51.290;6.926;2023-09-30T09:20:25;101279.94;;;15.80;100.00
46836;BME280;32573;51.290;6.926;2023-09-30T09:22:55;101277.44;;;15.84;100.00
46836;BME280;32573;51.290;6.926;2023-09-30T09:25:37;101282.81;;;15.89;100.00
46836;BME280;32573;51.290;6.926;2023-09-30T09:28:06;101277.59;;;15.92;100.00
46836;BME280;32573;51.290;6.926;2023-09-30T09:30:38;101273.34;;;15.97;100.00
46836;BME280;32573;51.290;6.926;2023-09-30T09:33:08;101279.59;;;16.01;100.00
46836;BME280;32573;51.290;6.926;2023-09-30T09:35:37;101273.56;;;16.06;100.00
46836;BME280;32573;51.290;6.926;2023-09-30T09:38:07;101280.72;;;16.10;100.00
46836;BME280;32573;51.290;6.926;2023-09-30T09:40:38;101288.75;;;16.15;100.00
46836;BME280;32573;51.290;6.926;2023-09-30T09:43:09;101284.41;;;16.18;100.00
46836;BME280;32573;51.290;6.926;2023-09-30T09:45:38;101282.69;;;16.21;100.00
46836;BME280;32573;51.290;6.926;2023-09-30T09:48:09;101281.00;;;16.23;100.00
46836;BME280;32573;51.290;6.926;2023-09-30T09:50:38;101283.69;;;16.26;100.00
46836;BME280;32573;51.290;6.926;2023-09-30T09:53:09;101275.84;;;16.29;100.00
46836;BME280;32573;51.290;6.926;2023-09-30T09:55:42;101275.91;;;16.32;100.00
46836;BME280;32573;51.290;6.926;2023-09-30T09:58:13;101291.84;;;16.35;100.00
46836;BME280;32573;51.290;6.926;2023-09-30T10:00:43;101287.56;;;16.42;100.00
46836;BME280;32573;51.290;6.926;2023-09-30T10:03:12;101302.66;;;16.47;100.00
46836;BME280;32573;51.290;6.926;2023-09-30T10:05:41;101300.13;;;16.52;100.00
46836;BME280;32573;51.290;6.926;2023-09-30T10:08:12;101299.41;;;16.57;100.00
46836;BME280;32573;51.290;6.926;2023-09-30T10:10:46;101303.88;;;16.61;100.00
46836;BME280;32573;51.290;6.926;2023-09-30T10:16:47;101315.59;;;16.73;100.00
46836;BME280;32573;51.290;6.926;2023-09-30T10:19:19;101324.53;;;16.78;100.00
46836;BME280;32573;51.290;6.926;2023-09-30T10:22:21;101329.00;;;16.82;100.00
46836;BME280;32573;51.290;6.926;2023-09-30T10:24:52;101319.38;;;16.84;100.00
46836;BME280;32573;51.290;6.926;2023-09-30T10:27:36;101311.47;;;16.87;100.00
46836;BME280;32573;51.290;6.926;2023-09-30T10:30:12;101314.13;;;16.87;100.00
46836;BME280;32573;51.290;6.926;2023-09-30T10:33:09;101311.53;;;16.89;100.00
46836;BME280;32573;51.290;6.926;2023-09-30T10:35:45;101312.41;;;16.89;100.00
46836;BME280;32573;51.290;6.926;2023-09-30T10:38:39;101310.69;;;16.91;100.00
46836;BME280;32573;51.290;6.926;2023-09-30T10:41:09;101316.03;;;16.94;100.00
46836;BME280;32573;51.290;6.926;2023-09-30T10:43:41;101320.56;;;16.98;100.00
46836;BME280;32573;51.290;6.926;2023-09-30T10:46:30;101309.19;;;17.02;100.00
46836;BME280;32573;51.290;6.926;2023-09-30T10:49:14;101313.72;;;17.10;100.00
46836;BME280;32573;51.290;6.926;2023-09-30T10:51:44;101324.44;;;17.16;100.00
46836;BME280;32573;51.290;6.926;2023-09-30T10:54:14;101330.69;;;17.21;100.00
46836;BME280;32573;51.290;6.926;2023-09-30T10:56:43;101316.69;;;17.27;100.00
46836;BME280;32573;51.290;6.926;2023-09-30T10:59:18;101302.66;;;17.31;100.00
46836;BME280;32573;51.290;6.926;2023-09-30T11:01:47;101307.09;;;17.32;100.00
46836;BME280;32573;51.290;6.926;2023-09-30T11:04:16;101299.19;;;17.33;100.00
46836;BME280;32573;51.290;6.926;2023-09-30T11:06:46;101295.59;;;17.31;100.00
46836;BME280;32573;51.290;6.926;2023-09-30T11:09:15;101286.75;;;17.29;100.00
46836;BME280;32573;51.290;6.926;2023-09-30T11:11:46;101291.19;;;17.30;100.00
46836;BME280;32573;51.290;6.926;2023-09-30T11:14:19;101287.72;;;17.33;100.00
46836;BME280;32573;51.290;6.926;2023-09-30T11:16:50;101292.22;;;17.38;100.00
46836;BME280;32573;51.290;6.926;2023-09-30T11:19:19;101287.00;;;17.43;100.00
46836;BME280;32573;51.290;6.926;2023-09-30T11:21:50;101292.41;;;17.48;100.00
46836;BME280;32573;51.290;6.926;2023-09-30T11:24:19;101288.91;;;17.52;100.00
46836;BME280;32573;51.290;6.926;2023-09-30T11:26:50;101284.53;;;17.54;100.00
46836;BME280;32573;51.290;6.926;2023-09-30T11:29:22;101277.56;;;17.57;100.00
46836;BME280;32573;51.290;6.926;2023-09-30T11:31:52;101267.03;;;17.60;100.00
46836;BME280;32573;51.290;6.926;2023-09-30T11:34:31;101278.53;;;17.64;100.00
46836;BME280;32573;51.290;6.926;2023-09-30T11:37:01;101271.56;;;17.69;100.00
46836;BME280;32573;51.290;6.926;2023-09-30T11:39:31;101270.81;;;17.75;100.00
46836;BME280;32573;51.290;6.926;2023-09-30T11:42:01;101258.44;;;17.77;100.00
46836;BME280;32573;51.290;6.926;2023-09-30T11:44:44;101263.84;;;17.81;100.00
46836;BME280;32573;51.290;6.926;2023-09-30T11:47:14;101255.94;;;17.84;100.00
46836;BME280;32573;51.290;6.926;2023-09-30T11:49:43;101257.78;;;17.88;100.00
46836;BME280;32573;51.290;6.926;2023-09-30T11:52:13;101250.81;;;17.94;100.00
46836;BME280;32573;51.290;6.926;2023-09-30T11:54:43;101247.34;;;17.98;100.00
46836;BME280;32573;51.290;6.926;2023-09-30T11:57:13;101250.97;;;18.03;100.00
46836;BME280;32573;51.290;6.926;2023-09-30T11:59:45;101251.00;;;18.06;100.00
46836;BME280;32573;51.290;6.926;2023-09-30T12:02:15;101266.94;;;18.09;100.00
46836;BME280;32573;51.290;6.926;2023-09-30T12:04:46;101259.03;;;18.10;100.00
46836;BME280;32573;51.290;6.926;2023-09-30T12:07:15;101252.88;;;18.13;100.00
46836;BME280;32573;51.290;6.926;2023-09-30T12:09:44;101249.41;;;18.17;100.00
46836;BME280;32573;51.290;6.926;2023-09-30T12:12:13;101248.59;;;18.23;100.00
46836;BME280;32573;51.290;6.926;2023-09-30T12:14:44;101249.56;;;18.29;100.00
46836;BME280;32573;51.290;6.926;2023-09-30T12:17:13;101232.88;;;18.37;100.00
46836;BME280;32573;51.290;6.926;2023-09-30T12:19:42;101230.31;;;18.43;100.00
46836;BME280;32573;51.290;6.926;2023-09-30T12:22:12;101211.84;;;18.50;100.00
46836;BME280;32573;51.290;6.926;2023-09-30T12:24:40;101212.81;;;18.57;100.00
46836;BME280;32573;51.290;6.926;2023-09-30T12:27:09;101203.16;;;18.64;100.00
46836;BME280;32573;51.290;6.926;2023-09-30T12:29:41;101193.50;;;18.70;100.00
46836;BME280;32573;51.290;6.926;2023-09-30T12:32:12;101188.28;;;18.77;100.00
46836;BME280;32573;51.290;6.926;2023-09-30T12:34:42;101200.75;;;18.84;100.00
46836;BME280;32573;51.290;6.926;2023-09-30T12:37:11;101205.22;;;18.86;100.00
46836;BME280;32573;51.290;6.926;2023-09-30T12:39:41;101210.53;;;18.89;100.00
46836;BME280;32573;51.290;6.926;2023-09-30T12:42:12;101207.03;;;18.92;100.00
46836;BME280;32573;51.290;6.926;2023-09-30T12:44:42;101205.31;;;18.95;100.00
46836;BME280;32573;51.290;6.926;2023-09-30T12:47:12;101207.09;;;18.96;100.00
46836;BME280;32573;51.290;6.926;2023-09-30T12:49:43;101216.84;;;18.99;100.00
46836;BME280;32573;51.290;6.926;2023-09-30T12:52:12;101216.91;;;19.02;100.00
46836;BME280;32573;51.290;6.926;2023-09-30T12:54:40;101208.09;;;19.09;100.00
46836;BME280;32573;51.290;6.926;2023-09-30T12:57:10;101222.31;;;19.14;100.00
46836;BME280;32573;51.290;6.926;2023-09-30T12:59:41;101211.75;;;19.21;100.00